Time;durP1;ratioP1;P1;durP2;ratioP2;P2;SDS_P1;SDS_P2;PMS_P1;PMS_P2;Temp;Humidity;BMP_temperature;BMP_pressure;BME280_temperature;BME280_humidity;BME280_pressure;Samples;Min_cycle;Max_cycle;Signal;HPM_P1;HPM_P2
2022/04/05 00:01:25;;;;;;;16.03;11.33;;;5.20;1.00;;;;;;5038032;28;20208;-86
2022/04/05 00:04:20;;;;;;;16.47;12.10;;;5.20;1.00;;;;;;5039077;28;20257;-89
2022/04/05 00:07:01;;;;;;;16.13;11.60;;;5.20;1.00;;;;;;5038616;28;20195;-87
2022/04/05 00:16:02;;;;;;;17.23;11.33;;;5.30;1.00;;;;;;5028564;28;20192;-88
2022/04/05 00:18:37;;;;;;;15.53;11.40;;;5.30;1.00;;;;;;5038624;28;20162;-89
2022/04/05 00:21:40;;;;;;;14.87;11.37;;;5.30;1.00;;;;;;5039007;28;20262;-90
2022/04/05 00:24:34;;;;;;;14.83;10.83;;;5.30;1.00;;;;;;5001364;28;20187;-86
2022/04/05 00:30:40;;;;;;;13.03;9.40;;;5.20;1.00;;;;;;5038433;28;20225;-87
2022/04/05 00:33:29;;;;;;;12.67;9.17;;;5.30;1.00;;;;;;5037777;28;20217;-88
2022/04/05 00:36:13;;;;;;;12.87;8.70;;;5.20;99.90;;;;;;5037894;28;20177;-89
2022/04/05 00:38:58;;;;;;;13.97;8.50;;;5.20;99.90;;;;;;5037787;28;20223;-85
2022/04/05 00:41:40;;;;;;;14.73;9.23;;;5.20;99.90;;;;;;5037724;28;20189;-89
2022/04/05 00:44:09;;;;;;;12.63;8.93;;;5.20;99.90;;;;;;5033532;28;20546;-86
2022/04/05 00:46:36;;;;;;;11.10;7.13;;;5.10;99.90;;;;;;5014932;28;20197;-85
2022/04/05 00:49:03;;;;;;;11.87;6.87;;;5.10;34.00;;;;;;5014915;28;20197;-86
2022/04/05 00:51:30;;;;;;;11.57;7.63;;;5.10;1.00;;;;;;5019096;28;20188;-85
2022/04/05 00:57:26;;;;;;;10.13;6.40;;;5.00;99.90;;;;;;5013180;28;20178;-87
2022/04/05 01:00:27;;;;;;;11.90;7.00;;;5.00;99.90;;;;;;5036724;28;20202;-88
2022/04/05 01:03:04;;;;;;;8.80;4.83;;;5.00;99.90;;;;;;5016529;28;20204;-87
2022/04/05 01:05:44;;;;;;;10.73;5.57;;;5.00;99.90;;;;;;5029939;28;20165;-88
2022/04/05 01:08:19;;;;;;;7.97;4.27;;;5.00;99.90;;;;;;5038890;28;20204;-88
2022/04/05 01:10:47;;;;;;;8.10;3.20;;;4.90;1.00;;;;;;5036584;28;20188;-85
2022/04/05 01:13:15;;;;;;;8.17;3.70;;;4.90;1.00;;;;;;5016173;28;20216;-85
2022/04/05 01:15:43;;;;;;;5.00;2.83;;;4.90;1.00;;;;;;5015827;28;20713;-84
2022/04/05 01:18:10;;;;;;;7.07;3.33;;;4.80;99.90;;;;;;5023248;28;20194;-86
2022/04/05 01:20:41;;;;;;;6.53;2.93;;;4.80;1.00;;;;;;5032037;28;20218;-88
2022/04/05 01:23:08;;;;;;;5.43;2.60;;;4.70;1.00;;;;;;5034535;28;20170;-83
2022/04/05 01:25:36;;;;;;;7.60;3.13;;;4.60;99.90;;;;;;5016648;28;20665;-86
2022/04/05 01:28:12;;;;;;;8.07;2.83;;;4.60;99.90;;;;;;5019197;28;20196;-87
2022/04/05 01:30:45;;;;;;;8.80;2.80;;;4.60;99.90;;;;;;5028518;28;20653;-87
2022/04/05 01:33:12;;;;;;;8.27;2.33;;;4.70;1.00;;;;;;5036639;28;20201;-85
2022/04/05 01:35:43;;;;;;;7.97;2.70;;;4.70;1.00;;;;;;5029695;28;20181;-83
2022/04/05 01:38:20;;;;;;;8.47;2.43;;;4.70;99.90;;;;;;5034726;28;20230;-87
2022/04/05 01:43:40;;;;;;;10.50;4.27;;;4.70;99.90;;;;;;5028499;28;20293;-81
2022/04/05 01:46:07;;;;;;;6.23;2.30;;;4.70;1.00;;;;;;5013562;28;20240;-84
2022/04/05 01:48:34;;;;;;;5.43;1.70;;;4.70;1.00;;;;;;5013564;28;20610;-84
2022/04/05 01:51:01;;;;;;;6.33;2.00;;;4.70;1.00;;;;;;5013556;28;20199;-86
2022/04/05 01:53:31;;;;;;;10.77;2.13;;;4.60;1.00;;;;;;5025468;28;20251;-87
2022/04/05 01:56:03;;;;;;;7.90;1.93;;;4.60;99.90;;;;;;5032936;28;20195;-88
2022/04/05 01:58:31;;;;;;;3.97;1.77;;;4.50;99.90;;;;;;5030757;28;20215;-87
2022/04/05 02:01:00;;;;;;;6.90;2.30;;;4.50;1.00;;;;;;5031548;28;20232;-87
2022/04/05 02:03:33;;;;;;;7.83;2.20;;;4.50;1.00;;;;;;5032898;28;20200;-89
2022/04/05 02:06:21;;;;;;;9.37;2.03;;;4.40;1.00;;;;;;5037342;28;20219;-87
2022/04/05 02:12:07;;;;;;;9.63;1.97;;;4.30;1.00;;;;;;5034324;28;20183;-89
2022/04/05 02:14:39;;;;;;;5.37;2.30;;;4.30;99.90;;;;;;5037246;28;20233;-85
2022/04/05 02:20:05;;;;;;;13.80;2.03;;;4.20;99.90;;;;;;5025362;28;20247;-82
2022/04/05 02:22:32;;;;;;;6.90;2.20;;;4.10;99.90;;;;;;5012815;28;20257;-84
2022/04/05 02:25:01;;;;;;;12.17;6.37;;;4.10;99.90;;;;;;5012735;28;20249;-82
2022/04/05 02:27:30;;;;;;;8.50;1.93;;;4.10;99.90;;;;;;5026185;28;20198;-87
2022/04/05 02:29:58;;;;;;;9.87;2.20;;;4.10;1.00;;;;;;5032028;28;20263;-87
2022/04/05 02:32:25;;;;;;;8.20;1.90;;;4.10;1.00;;;;;;5015295;28;20582;-82
2022/04/05 02:34:52;;;;;;;11.60;2.10;;;4.00;99.90;;;;;;5019578;28;20223;-84
2022/04/05 02:37:19;;;;;;;5.33;1.87;;;4.10;99.90;;;;;;5018740;28;20586;-85
2022/04/05 02:39:47;;;;;;;10.10;2.10;;;4.00;99.90;;;;;;5020214;28;20218;-85
2022/04/05 02:42:14;;;;;;;5.87;1.80;;;4.00;99.90;;;;;;5030874;28;20208;-84
2022/04/05 02:44:43;;;;;;;9.07;2.30;;;3.90;99.90;;;;;;5032668;28;20226;-84
2022/04/05 02:47:16;;;;;;;7.40;2.43;;;3.90;99.90;;;;;;5032019;28;20240;-88
2022/04/05 02:49:43;;;;;;;7.00;1.90;;;3.90;1.00;;;;;;5032264;28;20285;-83
2022/04/05 02:52:29;;;;;;;5.57;1.70;;;3.90;1.50;;;;;;5031239;28;20265;-87
2022/04/05 02:55:04;;;;;;;7.27;1.97;;;3.90;1.00;;;;;;5036867;28;20205;-86
2022/04/05 02:57:31;;;;;;;8.60;2.13;;;3.80;1.00;;;;;;5033602;28;20204;-85
2022/04/05 03:00:00;;;;;;;9.07;2.10;;;3.80;1.00;;;;;;5012303;28;20201;-84
2022/04/05 03:02:27;;;;;;;8.43;1.80;;;3.70;1.00;;;;;;5012261;28;20651;-83
2022/04/05 03:04:56;;;;;;;6.77;1.97;;;3.70;1.00;;;;;;5021258;28;20284;-86
2022/04/05 03:07:31;;;;;;;9.60;2.20;;;3.70;1.00;;;;;;5030631;28;20202;-84
2022/04/05 03:10:00;;;;;;;4.23;1.90;;;3.60;1.00;;;;;;5030969;28;20193;-87
2022/04/05 03:12:28;;;;;;;8.93;2.33;;;3.60;99.90;;;;;;5032585;28;20193;-84
2022/04/05 03:14:56;;;;;;;6.40;2.40;;;3.60;99.90;;;;;;5028400;28;20261;-84
2022/04/05 03:17:29;;;;;;;11.63;2.37;;;3.50;99.90;;;;;;5034065;28;20204;-83
2022/04/05 03:19:58;;;;;;;4.80;1.83;;;3.50;99.90;;;;;;5032880;28;20155;-84
2022/04/05 03:22:36;;;;;;;7.83;1.90;;;3.50;99.90;;;;;;5034270;28;20205;-83
2022/04/05 03:25:14;;;;;;;7.13;1.67;;;3.40;99.90;;;;;;5038999;28;20232;-85
2022/04/05 03:27:43;;;;;;;9.93;2.57;;;3.40;99.90;;;;;;5022846;28;20190;-82
2022/04/05 03:31:00;;;;;;;7.63;2.00;;;3.40;99.90;;;;;;5039752;28;20208;-85
2022/04/05 03:33:43;;;;;;;8.03;1.57;;;3.40;99.90;;;;;;5040412;28;20200;-85
2022/04/05 03:36:41;;;;;;;6.77;1.90;;;3.40;98.20;;;;;;5022012;28;20202;-84
2022/04/05 03:39:08;;;;;;;5.10;1.70;;;3.40;99.90;;;;;;5033684;28;20643;-83
2022/04/05 03:41:35;;;;;;;11.43;1.93;;;3.40;99.90;;;;;;5015788;28;20647;-83
2022/04/05 03:44:04;;;;;;;9.13;2.20;;;3.40;99.90;;;;;;5016363;28;20627;-84
2022/04/05 03:46:31;;;;;;;6.63;2.00;;;3.40;99.90;;;;;;5015325;28;20659;-82
2022/04/05 03:48:59;;;;;;;10.40;1.70;;;3.40;2.00;;;;;;5015646;28;20194;-82
2022/04/05 03:51:27;;;;;;;6.80;1.80;;;3.40;12.70;;;;;;5015736;28;20201;-83
2022/04/05 03:53:54;;;;;;;8.63;2.00;;;3.40;1.00;;;;;;5015523;28;20654;-82
2022/04/05 03:56:22;;;;;;;11.57;2.23;;;3.40;1.00;;;;;;5015578;28;20229;-82
2022/04/05 03:58:49;;;;;;;6.60;2.50;;;3.40;1.00;;;;;;5015677;28;20196;-83
2022/04/05 04:01:16;;;;;;;6.77;1.60;;;3.40;1.00;;;;;;5015444;28;20646;-82
2022/04/05 04:03:44;;;;;;;9.00;1.70;;;3.40;1.00;;;;;;5015638;28;20720;-82
2022/04/05 04:06:12;;;;;;;9.80;2.10;;;3.40;1.00;;;;;;5015700;28;20240;-82
2022/04/05 04:08:39;;;;;;;6.40;1.97;;;3.40;1.00;;;;;;5015661;28;20206;-82
2022/04/05 04:11:06;;;;;;;6.63;1.60;;;3.40;1.00;;;;;;5015340;28;20202;-81
2022/04/05 04:13:33;;;;;;;8.63;1.90;;;3.40;1.00;;;;;;5015685;28;20209;-81
2022/04/05 04:16:01;;;;;;;7.10;1.43;;;3.40;99.90;;;;;;5018380;28;20686;-82
2022/04/05 04:18:30;;;;;;;10.70;1.90;;;3.40;99.90;;;;;;5037444;28;20216;-86
2022/04/05 04:20:57;;;;;;;8.43;2.00;;;3.40;99.90;;;;;;5020637;28;20201;-82
2022/04/05 04:23:26;;;;;;;10.60;2.10;;;3.40;99.90;;;;;;5015082;28;20655;-82
2022/04/05 04:25:53;;;;;;;10.27;2.10;;;3.40;17.20;;;;;;5014470;28;20260;-82
2022/04/05 04:28:20;;;;;;;7.60;1.80;;;3.40;1.00;;;;;;5015526;28;20713;-82
2022/04/05 04:33:29;;;;;;;7.47;1.50;;;3.40;1.00;;;;;;5013902;28;20190;-78
2022/04/05 04:35:56;;;;;;;11.00;1.60;;;3.40;1.00;;;;;;5017621;28;20218;-81
2022/04/05 04:38:23;;;;;;;7.77;1.73;;;3.40;1.00;;;;;;5018188;28;20197;-82
2022/04/05 04:40:54;;;;;;;7.07;2.10;;;3.50;1.00;;;;;;5014950;28;20537;-80
2022/04/05 04:43:23;;;;;;;8.10;1.67;;;3.50;1.00;;;;;;5018789;28;20187;-81
2022/04/05 04:45:50;;;;;;;9.33;2.17;;;3.60;1.00;;;;;;5016490;28;20647;-81
2022/04/05 04:48:17;;;;;;;6.43;1.53;;;3.60;1.00;;;;;;5016665;28;20198;-80
2022/04/05 04:50:44;;;;;;;6.83;2.10;;;3.70;1.00;;;;;;5014853;28;20198;-80
2022/04/05 04:53:11;;;;;;;7.77;1.80;;;3.80;1.00;;;;;;5014837;28;20280;-79
2022/04/05 04:55:38;;;;;;;9.35;2.30;;;3.90;1.00;;;;;;5020839;28;20444;-79
2022/04/05 04:58:06;;;;;;;6.00;2.10;;;4.00;1.00;;;;;;5026674;28;20198;-79
2022/04/05 05:00:33;;;;;;;5.93;1.47;;;4.20;99.90;;;;;;5014763;28;20196;-79
2022/04/05 05:03:00;;;;;;;4.83;1.60;;;4.30;99.90;;;;;;5014672;28;20334;-79
2022/04/05 05:05:31;;;;;;;15.83;5.77;;;4.40;99.90;;;;;;5020553;28;20185;-83
2022/04/05 05:07:58;;;;;;;6.37;1.60;;;4.50;99.90;;;;;;5021226;28;20190;-79
2022/04/05 05:10:25;;;;;;;7.40;1.60;;;4.60;99.90;;;;;;5015228;28;20247;-81
2022/04/05 05:12:52;;;;;;;5.63;2.00;;;4.70;99.90;;;;;;5019232;28;20254;-79
2022/04/05 05:15:21;;;;;;;9.20;1.80;;;4.70;99.90;;;;;;5023280;28;20219;-79
2022/04/05 05:17:55;;;;;;;8.53;2.43;;;4.80;1.00;;;;;;5024989;28;20541;-80
2022/04/05 05:20:23;;;;;;;19.00;7.80;;;4.90;1.00;;;;;;5024599;28;20197;-79
2022/04/05 05:22:56;;;;;;;33.00;14.93;;;5.10;1.00;;;;;;5026862;28;20197;-81
2022/04/05 05:25:27;;;;;;;55.03;21.93;;;5.20;1.00;;;;;;5027389;28;20195;-79
2022/04/05 05:27:54;;;;;;;41.53;17.83;;;5.20;1.00;;;;;;5013596;28;20655;-79
2022/04/05 05:30:31;;;;;;;152.87;52.43;;;5.10;99.90;;;;;;5017880;28;20200;-80
2022/04/05 05:33:08;;;;;;;161.50;50.10;;;5.10;99.90;;;;;;5011505;28;20207;-80
2022/04/05 05:35:47;;;;;;;189.77;54.77;;;5.10;99.90;;;;;;5025153;28;20246;-79
2022/04/05 05:38:28;;;;;;;170.77;50.03;;;5.20;99.90;;;;;;5027009;28;20213;-82
2022/04/05 05:41:04;;;;;;;186.10;53.93;;;5.20;99.90;;;;;;5024093;28;20185;-82
2022/04/05 05:43:36;;;;;;;117.77;35.23;;;5.20;99.90;;;;;;5026495;28;20251;-79
2022/04/05 05:46:10;;;;;;;170.03;47.63;;;5.30;99.90;;;;;;5023436;28;20197;-81
2022/04/05 05:48:37;;;;;;;235.90;67.87;;;5.40;99.90;;;;;;5019966;28;20694;-78
2022/04/05 05:51:05;;;;;;;142.57;44.97;;;5.50;99.90;;;;;;5016103;28;20202;-80
2022/04/05 05:53:32;;;;;;;133.67;46.47;;;5.50;99.90;;;;;;5016246;28;20280;-79
2022/04/05 05:55:59;;;;;;;129.83;43.93;;;5.60;99.90;;;;;;5020835;28;20276;-78
2022/04/05 05:58:26;;;;;;;52.20;20.77;;;5.70;9.00;;;;;;5014153;28;20198;-79
2022/04/05 06:00:53;;;;;;;68.07;24.97;;;5.70;1.00;;;;;;5013215;28;20289;-80
2022/04/05 06:03:26;;;;;;;89.03;30.97;;;5.70;1.00;;;;;;5021738;28;20197;-82
2022/04/05 06:05:53;;;;;;;43.40;18.07;;;5.80;1.00;;;;;;5014233;28;20213;-78
2022/04/05 06:08:20;;;;;;;28.47;12.03;;;5.80;1.00;;;;;;5015496;28;20221;-79
2022/04/05 06:10:47;;;;;;;38.63;15.40;;;5.80;1.00;;;;;;5018518;28;20205;-81
2022/04/05 06:13:21;;;;;;;24.53;9.63;;;5.90;1.00;;;;;;5020006;28;20198;-81
2022/04/05 06:15:48;;;;;;;34.40;14.53;;;6.00;1.00;;;;;;5015437;28;20264;-78
2022/04/05 06:18:15;;;;;;;14.03;5.60;;;6.10;1.00;;;;;;5014865;28;20197;-79
2022/04/05 06:20:43;;;;;;;16.33;6.07;;;6.40;1.00;;;;;;5014484;28;20604;-78
2022/04/05 06:23:10;;;;;;;13.43;5.17;;;6.60;1.00;;;;;;5013190;28;20190;-78
2022/04/05 06:25:38;;;;;;;11.90;4.53;;;6.70;1.00;;;;;;5013106;28;20199;-78
2022/04/05 06:28:08;;;;;;;15.10;6.10;;;6.90;1.00;;;;;;4996738;28;20203;-81
2022/04/05 06:30:37;;;;;;;14.47;4.37;;;6.90;1.00;;;;;;5000718;28;20200;-78
2022/04/05 06:33:09;;;;;;;9.67;4.07;;;6.90;1.00;;;;;;4998775;28;20247;-80
2022/04/05 06:35:53;;;;;;;15.13;5.67;;;6.90;1.00;;;;;;4999932;28;20576;-80
2022/04/05 06:38:21;;;;;;;10.17;3.60;;;7.00;99.90;;;;;;5007343;28;20241;-81
2022/04/05 06:41:02;;;;;;;5.93;2.30;;;7.10;1.00;;;;;;5020912;28;20210;-82
2022/04/05 06:43:30;;;;;;;7.97;2.43;;;7.20;1.00;;;;;;5020474;28;20248;-81
2022/04/05 06:45:57;;;;;;;8.13;3.57;;;7.50;1.00;;;;;;5023001;28;20200;-82
2022/04/05 06:48:27;;;;;;;14.03;4.00;;;7.80;1.00;;;;;;5026322;28;20213;-80
2022/04/05 06:50:56;;;;;;;8.30;2.87;;;8.20;99.90;;;;;;5022325;28;20182;-80
2022/04/05 06:53:26;;;;;;;8.00;2.63;;;8.50;99.90;;;;;;5012685;28;20219;-84
2022/04/05 06:55:57;;;;;;;6.13;2.40;;;8.70;99.90;;;;;;5016113;28;20251;-82
2022/04/05 06:58:28;;;;;;;9.40;3.00;;;8.80;99.90;;;;;;5016203;28;20202;-82
2022/04/05 07:00:55;;;;;;;8.20;2.50;;;8.70;99.90;;;;;;5019914;28;20192;-83
2022/04/05 07:03:22;;;;;;;60.97;25.37;;;8.80;99.90;;;;;;5013604;28;20241;-81
2022/04/05 07:05:49;;;;;;;48.53;24.70;;;9.00;99.90;;;;;;5021787;28;20193;-80
2022/04/05 07:08:21;;;;;;;25.10;13.80;;;9.30;99.90;;;;;;5022574;28;20217;-80
2022/04/05 07:10:48;;;;;;;27.77;14.20;;;9.60;99.90;;;;;;5025077;28;20190;-79
2022/04/05 07:13:15;;;;;;;21.80;12.37;;;9.80;78.20;;;;;;5023401;28;20394;-81
2022/04/05 07:15:42;;;;;;;43.30;25.40;;;10.00;18.70;;;;;;5016504;28;20210;-80
2022/04/05 07:18:09;;;;;;;27.90;17.47;;;10.10;1.00;;;;;;5025864;28;20191;-80
2022/04/05 07:20:37;;;;;;;20.03;10.77;;;10.00;1.00;;;;;;5017687;28;20197;-79
2022/04/05 07:23:05;;;;;;;14.67;7.97;;;9.60;1.00;;;;;;5011571;28;20281;-79
2022/04/05 07:25:35;;;;;;;15.73;7.57;;;9.20;1.00;;;;;;5012217;28;20235;-79
2022/04/05 07:28:03;;;;;;;10.23;4.57;;;8.80;1.00;;;;;;5013353;28;20169;-80
2022/04/05 07:30:30;;;;;;;11.67;4.10;;;8.90;34.20;;;;;;5013588;28;20640;-81
2022/04/05 07:32:57;;;;;;;14.13;4.87;;;9.10;1.00;;;;;;5011673;28;20246;-80
2022/04/05 07:35:27;;;;;;;12.93;5.17;;;9.50;1.00;;;;;;5023401;28;20271;-82
2022/04/05 07:37:57;;;;;;;9.80;4.33;;;9.70;1.00;;;;;;5024383;28;20292;-81
2022/04/05 07:40:47;;;;;;;8.93;3.67;;;9.90;1.00;;;;;;5023232;28;20190;-83
2022/04/05 07:43:22;;;;;;;13.97;6.63;;;10.10;1.00;;;;;;5021382;28;20333;-82
2022/04/05 07:45:49;;;;;;;21.73;9.83;;;10.10;1.00;;;;;;5017869;28;20197;-82
2022/04/05 07:48:17;;;;;;;9.33;3.87;;;9.90;1.00;;;;;;5014480;28;20256;-81
2022/04/05 07:50:46;;;;;;;15.57;6.83;;;9.70;1.00;;;;;;5024980;28;20196;-82
2022/04/05 07:53:13;;;;;;;8.63;3.33;;;9.50;1.00;;;;;;5018041;28;20232;-80
2022/04/05 07:55:41;;;;;;;8.50;1.60;;;9.60;1.00;;;;;;5024060;28;20218;-83
2022/04/05 07:58:08;;;;;;;5.67;2.50;;;9.60;1.00;;;;;;5022591;28;20184;-83
2022/04/05 08:00:55;;;;;;;7.87;2.77;;;9.30;1.00;;;;;;5017865;28;20289;-84
2022/04/05 08:03:33;;;;;;;11.90;4.63;;;8.90;1.00;;;;;;5022739;28;20233;-80
2022/04/05 08:06:00;;;;;;;13.93;5.50;;;8.60;1.00;;;;;;5024081;28;20188;-79
2022/04/05 08:08:28;;;;;;;11.43;4.70;;;8.30;1.00;;;;;;5020444;28;20194;-80
2022/04/05 08:10:56;;;;;;;9.70;3.53;;;8.20;1.00;;;;;;5023198;28;20201;-83
2022/04/05 08:13:26;;;;;;;10.23;3.40;;;8.10;1.00;;;;;;5025161;28;20198;-81
2022/04/05 08:15:57;;;;;;;10.33;3.20;;;8.30;1.00;;;;;;5024292;28;20249;-83
2022/04/05 08:18:27;;;;;;;8.40;2.57;;;8.50;1.00;;;;;;5025504;28;20568;-82
2022/04/05 08:21:05;;;;;;;9.10;4.80;;;8.60;1.00;;;;;;5026809;28;20194;-82
2022/04/05 08:23:34;;;;;;;7.93;2.90;;;8.60;1.00;;;;;;5024911;28;20190;-82
2022/04/05 08:26:10;;;;;;;8.83;2.20;;;8.60;1.00;;;;;;5023795;28;20278;-82
2022/04/05 08:28:51;;;;;;;8.77;1.90;;;9.40;1.00;;;;;;5011695;28;20184;-82
2022/04/05 08:31:19;;;;;;;4.90;1.90;;;10.50;1.00;;;;;;5017011;28;20191;-82
2022/04/05 08:33:54;;;;;;;6.43;1.60;;;11.30;1.00;;;;;;5021580;28;20195;-81
2022/04/05 08:36:28;;;;;;;7.80;1.57;;;11.20;1.00;;;;;;5021369;28;20211;-84
2022/04/05 08:39:02;;;;;;;8.13;2.10;;;10.70;1.00;;;;;;5019241;28;20555;-82
2022/04/05 08:41:43;;;;;;;7.77;2.23;;;10.20;1.00;;;;;;5021179;28;20196;-81
2022/04/05 08:44:10;;;;;;;8.73;1.77;;;9.90;1.00;;;;;;5021974;28;20184;-80
2022/04/05 08:46:42;;;;;;;7.73;1.90;;;9.60;1.00;;;;;;5021089;28;20198;-81
2022/04/05 08:49:10;;;;;;;6.13;1.93;;;9.40;1.00;;;;;;5021747;28;20200;-82
2022/04/05 08:51:44;;;;;;;6.97;1.80;;;9.20;1.00;;;;;;5021917;28;20285;-81
2022/04/05 08:54:21;;;;;;;9.97;2.90;;;8.80;1.00;;;;;;5020862;28;20197;-83
2022/04/05 08:56:51;;;;;;;7.03;2.57;;;8.60;1.00;;;;;;5022962;28;20622;-81
2022/04/05 08:59:18;;;;;;;8.53;2.17;;;8.60;1.00;;;;;;5018015;28;20181;-81
2022/04/05 09:02:02;;;;;;;5.60;1.70;;;8.80;1.00;;;;;;5020477;28;20195;-81
2022/04/05 09:04:33;;;;;;;7.90;2.20;;;8.90;1.00;;;;;;5020151;28;20190;-79
2022/04/05 09:07:23;;;;;;;3.33;1.57;;;8.70;1.00;;;;;;5016084;28;20597;-84
2022/04/05 09:10:12;;;;;;;5.83;2.00;;;9.00;1.00;;;;;;5015508;28;20205;-78
2022/04/05 09:12:50;;;;;;;4.47;1.70;;;10.20;1.00;;;;;;5021808;28;20279;-80
2022/04/05 09:15:25;;;;;;;4.80;1.80;;;10.90;1.00;;;;;;5023556;28;20242;-80
2022/04/05 09:17:57;;;;;;;4.83;1.47;;;11.20;1.00;;;;;;5021530;28;20415;-83
2022/04/05 09:20:28;;;;;;;4.93;1.57;;;11.70;1.00;;;;;;5018644;28;20201;-81
2022/04/05 09:22:58;;;;;;;5.07;2.07;;;12.30;1.00;;;;;;5015803;28;20271;-80
2022/04/05 09:25:32;;;;;;;3.20;1.40;;;12.80;1.00;;;;;;5019038;28;20203;-85
2022/04/05 09:28:00;;;;;;;3.77;1.43;;;13.00;1.00;;;;;;5019200;28;20195;-81
2022/04/05 09:30:32;;;;;;;4.47;1.50;;;13.40;1.00;;;;;;5021615;28;20669;-80
2022/04/05 09:33:05;;;;;;;4.10;1.70;;;13.30;1.00;;;;;;5021440;28;20432;-82
2022/04/05 09:35:45;;;;;;;5.10;1.50;;;13.10;1.00;;;;;;5017472;28;20432;-82
2022/04/05 09:38:31;;;;;;;2.50;1.20;;;13.70;1.00;;;;;;5022979;28;20196;-81
2022/04/05 09:41:23;;;;;;;3.47;1.50;;;13.60;1.00;;;;;;5021300;28;20188;-80
2022/04/05 09:44:19;;;;;;;5.33;1.73;;;13.70;1.00;;;;;;4997713;28;20592;-83
2022/04/05 09:47:16;;;;;;;4.60;1.90;;;13.40;1.00;;;;;;5003404;28;20286;-80
2022/04/05 09:50:01;;;;;;;5.43;2.13;;;12.90;1.00;;;;;;4982965;28;20696;-84
2022/04/05 09:52:32;;;;;;;5.47;1.90;;;12.90;1.00;;;;;;5012685;28;20230;-82
2022/04/05 09:55:23;;;;;;;4.40;2.20;;;12.70;1.00;;;;;;5020130;28;20181;-81
2022/04/05 09:58:30;;;;;;;6.37;1.90;;;12.60;1.00;;;;;;5018510;28;20199;-81
2022/04/05 10:01:07;;;;;;;6.03;2.00;;;12.50;1.00;;;;;;5011721;28;20275;-81
2022/04/05 10:03:44;;;;;;;4.10;2.10;;;12.60;1.00;;;;;;5010553;28;20647;-82
2022/04/05 10:06:28;;;;;;;5.77;2.03;;;12.50;1.00;;;;;;5020121;28;20195;-81
2022/04/05 10:09:00;;;;;;;6.13;2.40;;;12.30;1.00;;;;;;5019587;28;20199;-82
2022/04/05 10:11:40;;;;;;;8.33;2.30;;;12.00;1.00;;;;;;5018456;28;20233;-82
2022/04/05 10:17:04;;;;;;;4.67;1.90;;;11.00;1.00;;;;;;4985200;28;20224;-81
2022/04/05 10:19:39;;;;;;;4.33;2.40;;;10.70;1.00;;;;;;5017200;28;20187;-81
2022/04/05 10:22:12;;;;;;;7.30;2.83;;;10.80;1.00;;;;;;5021625;28;20200;-83
2022/04/05 10:24:53;;;;;;;4.67;1.90;;;11.10;1.00;;;;;;5016293;28;20208;-82
2022/04/05 10:27:33;;;;;;;5.50;3.03;;;11.20;1.00;;;;;;5017498;28;20191;-84
2022/04/05 10:30:24;;;;;;;6.60;3.83;;;11.00;1.00;;;;;;5014437;28;20188;-83
2022/04/05 10:36:02;;;;;;;4.30;2.27;;;11.00;1.00;;;;;;5014109;28;20600;-78
2022/04/05 10:38:40;;;;;;;4.67;1.93;;;11.00;1.00;;;;;;5016061;28;20642;-86
2022/04/05 10:41:16;;;;;;;7.90;2.57;;;10.90;1.00;;;;;;5016596;28;20201;-82
2022/04/05 10:44:03;;;;;;;10.23;2.90;;;11.10;1.00;;;;;;5020460;28;20186;-84
2022/04/05 10:46:40;;;;;;;7.27;4.50;;;11.10;1.00;;;;;;5013839;28;20190;-80
2022/04/05 10:49:13;;;;;;;5.57;2.30;;;11.00;1.00;;;;;;5017461;28;20193;-84
2022/04/05 10:52:05;;;;;;;7.37;2.03;;;11.10;1.00;;;;;;5016524;28;20274;-80
2022/04/05 10:54:39;;;;;;;8.50;1.90;;;11.40;1.00;;;;;;5016268;28;20281;-82
2022/04/05 10:57:26;;;;;;;5.30;2.00;;;11.40;1.00;;;;;;5018237;28;20202;-84
2022/04/05 10:59:58;;;;;;;5.03;1.97;;;11.40;1.00;;;;;;5015671;28;20537;-82
2022/04/05 11:02:35;;;;;;;7.17;2.27;;;11.30;1.00;;;;;;5019661;28;20626;-81
2022/04/05 11:05:32;;;;;;;3.07;1.40;;;11.10;1.00;;;;;;5014597;28;20186;-83
2022/04/05 11:08:04;;;;;;;4.03;1.60;;;11.30;1.00;;;;;;5004321;28;20312;-81
2022/04/05 11:10:59;;;;;;;3.90;1.53;;;11.50;1.00;;;;;;5014701;28;20187;-82
2022/04/05 11:13:40;;;;;;;9.47;4.43;;;11.40;1.00;;;;;;4994489;28;20199;-81
2022/04/05 11:16:21;;;;;;;6.33;3.27;;;11.20;1.00;;;;;;5017186;28;20628;-83
2022/04/05 11:18:56;;;;;;;29.00;14.00;;;11.10;1.00;;;;;;4994915;28;20197;-80
2022/04/05 11:21:34;;;;;;;38.57;16.03;;;10.90;1.00;;;;;;4993487;28;20179;-81
2022/04/05 11:24:31;;;;;;;18.87;8.27;;;10.90;1.00;;;;;;4995657;28;20255;-81
2022/04/05 11:27:42;;;;;;;34.90;15.27;;;11.00;1.00;;;;;;4993255;28;20195;-82
2022/04/05 11:30:58;;;;;;;52.80;20.30;;;11.10;1.00;;;;;;4994203;28;20198;-82
2022/04/05 11:33:45;;;;;;;71.07;26.07;;;10.90;1.00;;;;;;4990859;28;20205;-81
2022/04/05 11:36:15;;;;;;;98.33;35.00;;;10.70;1.00;;;;;;4995957;28;20619;-85
2022/04/05 11:38:44;;;;;;;64.00;25.00;;;10.60;1.00;;;;;;5011981;28;20229;-81
2022/04/05 11:41:18;;;;;;;16.70;7.10;;;10.50;1.00;;;;;;5020344;28;20246;-80
2022/04/05 11:43:47;;;;;;;44.13;18.67;;;10.30;1.00;;;;;;5016231;28;20188;-80
2022/04/05 11:46:16;;;;;;;38.40;19.23;;;10.20;1.00;;;;;;5017165;28;20191;-80
2022/04/05 11:48:46;;;;;;;70.87;32.23;;;10.10;1.00;;;;;;5016420;28;20249;-80
2022/04/05 11:51:16;;;;;;;38.30;18.87;;;10.00;1.00;;;;;;5021918;28;20545;-79
2022/04/05 11:53:45;;;;;;;45.83;19.97;;;9.90;1.00;;;;;;5020001;28;20229;-81
2022/04/05 11:56:16;;;;;;;22.97;11.20;;;9.80;1.00;;;;;;5022462;28;20223;-80
2022/04/05 11:58:47;;;;;;;12.27;5.80;;;9.70;1.00;;;;;;5019980;28;20218;-81
2022/04/05 12:01:15;;;;;;;15.20;7.10;;;9.70;1.00;;;;;;5015177;28;20299;-80
2022/04/05 12:03:46;;;;;;;10.03;4.17;;;9.80;1.00;;;;;;5022985;28;20198;-82
2022/04/05 12:06:16;;;;;;;9.73;4.60;;;10.00;1.00;;;;;;5022870;28;20237;-86
2022/04/05 12:08:43;;;;;;;9.13;6.33;;;10.10;1.00;;;;;;5020145;28;20197;-80
2022/04/05 12:11:10;;;;;;;6.53;3.40;;;10.20;1.00;;;;;;5018761;28;20195;-82
2022/04/05 12:13:41;;;;;;;7.90;3.90;;;10.20;1.00;;;;;;5014836;28;20615;-81
2022/04/05 12:16:08;;;;;;;8.57;4.23;;;10.20;1.00;;;;;;5017912;28;20193;-80
2022/04/05 12:18:34;;;;;;;6.67;3.57;;;10.30;1.00;;;;;;5016504;28;20226;-79
2022/04/05 12:21:05;;;;;;;6.20;2.97;;;10.30;1.00;;;;;;5014661;28;20634;-79
2022/04/05 12:23:35;;;;;;;5.83;3.80;;;10.30;1.00;;;;;;5016042;28;20188;-81
2022/04/05 12:26:10;;;;;;;10.10;3.57;;;10.30;1.00;;;;;;5018828;28;20727;-79
2022/04/05 12:28:39;;;;;;;5.70;2.87;;;10.30;1.00;;;;;;5016642;28;20187;-83
2022/04/05 12:31:11;;;;;;;6.77;3.00;;;10.20;1.00;;;;;;5018779;28;20207;-82
2022/04/05 12:33:43;;;;;;;5.57;3.27;;;10.20;1.00;;;;;;5017035;28;20257;-83
2022/04/05 12:36:15;;;;;;;5.73;3.80;;;10.20;1.00;;;;;;5017214;28;20185;-81
2022/04/05 12:38:42;;;;;;;4.33;2.30;;;10.20;1.00;;;;;;5016961;28;20212;-80
2022/04/05 12:41:14;;;;;;;5.43;2.57;;;10.20;1.00;;;;;;5017216;28;20208;-81
2022/04/05 12:43:41;;;;;;;7.17;2.27;;;10.20;1.00;;;;;;5016785;28;20191;-80
2022/04/05 12:46:11;;;;;;;5.37;2.20;;;10.10;1.00;;;;;;5020396;28;20536;-81
2022/04/05 12:48:38;;;;;;;5.27;2.87;;;10.20;1.00;;;;;;5016379;28;20230;-80
2022/04/05 12:51:06;;;;;;;6.63;3.10;;;10.30;1.00;;;;;;5017608;28;20195;-80
2022/04/05 12:53:37;;;;;;;6.97;4.60;;;10.30;1.00;;;;;;5014544;28;20224;-81
2022/04/05 12:56:13;;;;;;;7.03;4.20;;;10.40;1.00;;;;;;5016315;28;20551;-80
2022/04/05 12:58:50;;;;;;;3.90;2.40;;;10.30;1.00;;;;;;5016798;28;20336;-81
2022/04/05 13:01:19;;;;;;;3.80;2.60;;;10.30;1.00;;;;;;5016983;28;20184;-81
2022/04/05 13:03:47;;;;;;;7.80;2.50;;;10.20;1.00;;;;;;5015396;28;20205;-80
2022/04/05 13:06:24;;;;;;;6.40;1.97;;;10.10;1.00;;;;;;5016714;28;20598;-81
2022/04/05 13:09:04;;;;;;;5.70;2.20;;;10.00;1.00;;;;;;5015500;28;20184;-80
2022/04/05 13:11:32;;;;;;;4.30;2.30;;;9.90;1.00;;;;;;5014229;28;20201;-81
2022/04/05 13:14:08;;;;;;;5.70;2.30;;;9.90;1.00;;;;;;5013845;28;20186;-80
2022/04/05 13:16:36;;;;;;;3.17;1.90;;;10.00;1.00;;;;;;5014836;28;20631;-81
2022/04/05 13:19:11;;;;;;;5.43;1.90;;;10.10;1.00;;;;;;5015326;28;20655;-83
2022/04/05 13:21:49;;;;;;;9.50;2.40;;;10.30;1.00;;;;;;5019589;28;20256;-83
2022/04/05 13:24:19;;;;;;;5.27;2.77;;;10.40;1.00;;;;;;5017293;28;20263;-80
2022/04/05 13:26:48;;;;;;;7.10;2.93;;;10.50;1.00;;;;;;5014833;28;20251;-80
2022/04/05 13:29:25;;;;;;;5.80;3.43;;;10.60;1.00;;;;;;5013945;28;20252;-81
2022/04/05 13:32:01;;;;;;;5.90;2.83;;;10.70;1.00;;;;;;5016409;28;20192;-81
2022/04/05 13:34:30;;;;;;;5.77;3.00;;;10.70;1.00;;;;;;5014331;28;20186;-80
2022/04/05 13:36:57;;;;;;;7.00;2.43;;;10.80;1.00;;;;;;5014368;28;20219;-81
2022/04/05 13:39:31;;;;;;;9.10;3.73;;;10.80;1.00;;;;;;5014996;28;20613;-80
2022/04/05 13:41:58;;;;;;;5.40;3.20;;;10.90;1.00;;;;;;5011696;28;20656;-79
2022/04/05 13:44:26;;;;;;;9.87;4.07;;;10.90;1.00;;;;;;5015746;28;20194;-81
2022/04/05 13:46:53;;;;;;;7.90;3.80;;;10.90;1.00;;;;;;5015423;28;20232;-82
2022/04/05 13:49:21;;;;;;;4.93;2.10;;;10.90;1.00;;;;;;5018976;28;20192;-80
2022/04/05 13:51:54;;;;;;;7.80;4.30;;;10.80;1.00;;;;;;5017593;28;20225;-84
2022/04/05 13:54:21;;;;;;;5.80;2.43;;;10.80;1.00;;;;;;5016375;28;20643;-81
2022/04/05 13:56:49;;;;;;;5.00;1.60;;;10.80;1.00;;;;;;5014223;28;20197;-80